Terminal Aerodrome Forecast
Issued by NWS Portland, OR

Home | Current Version | Previous Version | Text Only | Print | Product List | Glossary On
Versions: 1 2 3 4 5 6 7 8 9 10 11 12 13 14 15 16 17 18 19 20 21 22 23 24 25 26 27 28
000
FTUS46 KPQR 261759 CCA
TAFSLE
TAF COR
KSLE 261759Z 2618/2718 33007KT P6SM FEW250
     FM262300 32010KT P6SM FEW250
     FM270500 31007KT P6SM FEW250
     FM271200 31005KT P6SM FEW015 SCT025
     FM271500 31004KT P6SM SCT015 BKN025=

USA.gov is the U.S. government's official web portal to all federal, state and local government web resources and services.